| time (UTC) | temp C | wind direction | speed KPH | gust KPH | rain 1hr cm | rain 24hr cm | rain mn cm | humidity % | barometer mb |
| 20260906074500 | 9 | 344 | 24.1 | 41.8 | 0.00 | 0.00 | 0.00 | 62 | |
| 20260906072131 | 8 | 353 | 22.5 | 38.6 | 0.00 | 0.00 | 0.00 | 65 | |
| 20260906064131 | 8 | 351 | 24.1 | 41.8 | 0.00 | 0.00 | 0.00 | 68 | |
| 20260906062500 | 8 | 352 | 22.5 | 37.0 | 0.00 | 0.00 | 0.00 | 72 | |
| 20260906060456 | 8 | 339 | 14.5 | 30.6 | 0.00 | 0.00 | 0.00 | 78 | |
| 20260906054459 | 8 | 339 | 14.5 | 25.7 | 0.00 | 0.00 | 0.00 | 80 | |
| 20260906052500 | 8 | 325 | 14.5 | 30.6 | 0.00 | 0.00 | 0.00 | 81 | |
| 20260906050501 | 7 | 317 | 14.5 | 20.9 | 0.00 | 0.00 | 0.00 | 83 | |
| 20260906044457 | 7 | 317 | 14.5 | 24.1 | 0.00 | 0.00 | 0.00 | 84 | |
| 20260906042130 | 7 | 317 | 14.5 | 22.5 | 0.00 | 0.00 | 0.00 | 85 | |
| 20260906040500 | 7 | 311 | 12.9 | 17.7 | 0.00 | 0.00 | 0.00 | 92 | |
| 20260906032459 | 7 | 312 | 12.9 | 20.9 | 0.00 | 0.00 | 0.00 | 92 | |
| 20260906030501 | 7 | 316 | 14.5 | 22.5 | 0.00 | 0.00 | 0.00 | 93 | |
| 20260906024500 | 7 | 319 | 11.3 | 24.1 | 0.00 | 0.00 | 0.00 | 96 | |
| 20260906022501 | 7 | 310 | 12.9 | 17.7 | 0.00 | 0.00 | 0.00 | 94 | |
| 20260906020500 | 7 | 311 | 12.9 | 19.3 | 0.00 | 0.00 | 0.00 | 93 | |
| 20260906014501 | 7 | 324 | 11.3 | 20.9 | 0.00 | 0.00 | 0.00 | 92 | |
| 20260906012458 | 8 | 322 | 12.9 | 24.1 | 0.00 | 0.00 | 0.00 | 92 | |
| 20260906010501 | 8 | 317 | 16.1 | 24.1 | 0.00 | 0.00 | 0.00 | 92 | |
| 20260906004501 | 8 | 325 | 8.0 | 17.7 | 0.00 | 0.00 | 0.00 | 91 | |
| 20260906000130 | 8 | 329 | 8.0 | 12.9 | 0.00 | 0.00 | 0.00 | 92 | |
| 20260905234459 | 7 | 339 | 9.7 | 17.7 | 0.00 | 0.00 | 0.00 | 91 | |
| 20260905232458 | 8 | 346 | 11.3 | 24.1 | 0.00 | 0.00 | 0.00 | 89 | |
| 20260905230459 | 8 | 341 | 14.5 | 24.1 | 0.00 | 0.00 | 0.00 | 89 | |
| 20260905224458 | 8 | 341 | 14.5 | 25.7 | 0.00 | 0.00 | 0.00 | 88 | |
| 20260905222459 | 8 | 343 | 14.5 | 25.7 | 0.00 | 0.00 | 0.00 | 91 | |
| 20260905220500 | 8 | 348 | 14.5 | 25.7 | 0.00 | 0.00 | 0.00 | 89 | |
| 20260905214459 | 8 | 345 | 14.5 | 24.1 | 0.00 | 0.00 | 0.00 | 89 | |
| 20260905212458 | 8 | 345 | 14.5 | 30.6 | 0.00 | 0.00 | 0.00 | 90 | |
| 20260905210456 | 8 | 341 | 14.5 | 27.4 | 0.00 | 0.00 | 0.00 | 91 | |
| 20260905204458 | 8 | 343 | 12.9 | 24.1 | 0.00 | 0.00 | 0.00 | 91 | |
| 20260905200129 | 8 | 342 | 11.3 | 20.9 | 0.00 | 0.00 | 0.00 | 92 | |
| 20260905194129 | 8 | 328 | 9.7 | 20.9 | 0.00 | 0.00 | 0.00 | 95 | |
| 20260905192129 | 8 | 338 | 9.7 | 19.3 | 0.00 | 0.00 | 0.00 | 94 | |
| 20260905190129 | 8 | 343 | 14.5 | 25.7 | 0.00 | 0.00 | 0.00 | 92 | |
| 20260905184459 | 8 | 342 | 12.9 | 24.1 | 0.00 | 0.00 | 0.00 | 92 | |
| 20260905180127 | 8 | 345 | 14.5 | 24.1 | 0.00 | 0.00 | 0.00 | 92 | |
| 20260905174127 | 9 | 2 | 14.5 | 27.4 | 0.00 | 0.00 | 0.00 | 94 | |
| 20260905172456 | 10 | 346 | 14.5 | 24.1 | 0.00 | 0.00 | 0.00 | 85 | |
| 20260905170457 | 10 | 352 | 14.5 | 20.9 | 0.00 | 0.00 | 0.00 | 85 | |
| 20260905164129 | 10 | 349 | 17.7 | 35.4 | 0.00 | 0.00 | 0.00 | 85 | |
| 20260905162453 | 10 | 357 | 12.9 | 24.1 | 0.00 | 0.00 | 0.00 | 87 | |
| 20260905160456 | 10 | 8 | 16.1 | 29.0 | 0.00 | 0.00 | 0.00 | 88 | |
| 20260905154129 | 11 | 351 | 14.5 | 25.7 | 0.00 | 0.00 | 0.00 | 78 | |
| 20260905152457 | 11 | 343 | 17.7 | 27.4 | 0.00 | 0.00 | 0.00 | 80 | |
| 20260905150457 | 12 | 344 | 19.3 | 27.4 | 0.00 | 0.00 | 0.00 | 80 | |
| 20260905144457 | 12 | 351 | 16.1 | 33.8 | 0.00 | 0.00 | 0.00 | 77 | |
| 20260905142457 | 12 | 346 | 16.1 | 32.2 | 0.00 | 0.00 | 0.00 | 80 | |
| 20260905140457 | 12 | 359 | 14.5 | 22.5 | 0.00 | 0.00 | 0.00 | 80 | |
| 20260905134456 | 12 | 350 | 16.1 | 30.6 | 0.00 | 0.00 | 0.00 | 87 | |
| 20260905132128 | 13 | 356 | 17.7 | 29.0 | 0.00 | 0.00 | 0.00 | 81 | |
| 20260905130501 | 12 | 5 | 17.7 | 30.6 | 0.00 | 0.00 | 0.00 | 81 | |
| 20260905124456 | 12 | 339 | 14.5 | 25.7 | 0.00 | 0.00 | 0.00 | 85 | |
| 20260905122128 | 13 | 335 | 12.9 | 27.4 | 0.00 | 0.00 | 0.00 | 81 | |
| 20260905120456 | 12 | 8 | 11.3 | 17.7 | 0.00 | 0.00 | 0.00 | 87 | |
| 20260905110456 | 13 | 322 | 11.3 | 19.3 | 0.00 | 0.00 | 0.00 | 81 | |
| 20260905104458 | 12 | 334 | 9.7 | 20.9 | 0.00 | 0.00 | 0.00 | 85 | |
| 20260905102457 | 12 | 317 | 16.1 | 24.1 | 0.00 | 0.00 | 0.00 | 89 | |
| 20260905100457 | 12 | 309 | 9.7 | 14.5 | 0.00 | 0.00 | 0.00 | 90 | |
| 20260905094456 | 11 | 319 | 8.0 | 12.9 | 0.00 | 0.00 | 0.00 | 94 | |
| 20260905092456 | 11 | 315 | 9.7 | 14.5 | 0.00 | 0.00 | 0.00 | 92 | |
| 20260905090457 | 11 | 313 | 12.9 | 19.3 | 0.00 | 0.00 | 0.00 | 96 | |
| 20260905084457 | 11 | 309 | 12.9 | 17.7 | 0.00 | 0.00 | 0.00 | 99 | |
| 20260905082458 | 10 | 312 | 9.7 | 16.1 | 0.00 | 0.00 | 0.00 | 100 |